sensor_id;sensor_type;location;lat;lon;timestamp;pressure;altitude;pressure_sealevel;temperature;humidity
19208;BME280;9737;59.466;18.036;2023-02-10T00:01:37;97339.31;;;2.59;73.15
19208;BME280;9737;59.466;18.036;2023-02-10T00:04:05;97347.16;;;2.59;73.08
19208;BME280;9737;59.466;18.036;2023-02-10T00:06:33;97358.09;;;2.64;73.29
19208;BME280;9737;59.466;18.036;2023-02-10T00:09:01;97362.25;;;2.67;73.13
19208;BME280;9737;59.466;18.036;2023-02-10T00:11:29;97366.66;;;2.66;73.03
19208;BME280;9737;59.466;18.036;2023-02-10T00:14:18;97362.25;;;2.67;73.32
19208;BME280;9737;59.466;18.036;2023-02-10T00:16:50;97363.34;;;2.64;73.08
19208;BME280;9737;59.466;18.036;2023-02-10T00:19:19;97332.41;;;2.58;73.07
19208;BME280;9737;59.466;18.036;2023-02-10T00:21:47;97327.72;;;2.52;73.28
19208;BME280;9737;59.466;18.036;2023-02-10T00:24:15;97316.25;;;2.53;73.23
19208;BME280;9737;59.466;18.036;2023-02-10T00:26:43;97294.84;;;2.48;73.07
19208;BME280;9737;59.466;18.036;2023-02-10T00:29:12;97282.16;;;2.43;73.00
19208;BME280;9737;59.466;18.036;2023-02-10T00:31:40;97246.13;;;2.36;73.10
19208;BME280;9737;59.466;18.036;2023-02-10T00:34:11;97228.31;;;2.30;73.08
19208;BME280;9737;59.466;18.036;2023-02-10T00:36:39;97220.72;;;2.27;73.05
19208;BME280;9737;59.466;18.036;2023-02-10T00:39:08;97225.97;;;2.27;73.10
19208;BME280;9737;59.466;18.036;2023-02-10T00:41:39;97254.00;;;2.36;73.13
19208;BME280;9737;59.466;18.036;2023-02-10T00:44:07;97270.97;;;2.41;73.02
19208;BME280;9737;59.466;18.036;2023-02-10T00:46:36;97265.19;;;2.38;73.13
19208;BME280;9737;59.466;18.036;2023-02-10T00:49:05;97253.19;;;2.35;73.00
19208;BME280;9737;59.466;18.036;2023-02-10T00:51:34;97249.59;;;2.36;73.05
19208;BME280;9737;59.466;18.036;2023-02-10T00:54:02;97269.88;;;2.44;73.06
19208;BME280;9737;59.466;18.036;2023-02-10T00:56:29;97248.75;;;2.36;72.98
19208;BME280;9737;59.466;18.036;2023-02-10T00:58:57;97241.88;;;2.35;72.93
19208;BME280;9737;59.466;18.036;2023-02-10T01:01:25;97255.66;;;2.37;72.96
19208;BME280;9737;59.466;18.036;2023-02-10T01:03:53;97237.72;;;2.32;73.15
19208;BME280;9737;59.466;18.036;2023-02-10T01:06:21;97221.41;;;2.29;72.99
19208;BME280;9737;59.466;18.036;2023-02-10T01:08:50;97217.81;;;2.30;73.03
19208;BME280;9737;59.466;18.036;2023-02-10T01:11:18;97212.03;;;2.26;72.89
19208;BME280;9737;59.466;18.036;2023-02-10T01:13:46;97180.31;;;2.20;72.83
19208;BME280;9737;59.466;18.036;2023-02-10T01:16:15;97170.09;;;2.16;72.96
19208;BME280;9737;59.466;18.036;2023-02-10T01:18:44;97161.84;;;2.11;72.76
19208;BME280;9737;59.466;18.036;2023-02-10T01:21:14;97156.59;;;2.11;73.18
19208;BME280;9737;59.466;18.036;2023-02-10T01:23:42;97161.56;;;2.14;72.93
19208;BME280;9737;59.466;18.036;2023-02-10T01:26:12;97131.75;;;1.96;72.95
19208;BME280;9737;59.466;18.036;2023-02-10T01:28:41;97156.59;;;2.11;72.95
19208;BME280;9737;59.466;18.036;2023-02-10T01:31:11;97130.94;;;2.05;72.72
19208;BME280;9737;59.466;18.036;2023-02-10T01:33:40;97130.94;;;2.05;72.66
19208;BME280;9737;59.466;18.036;2023-02-10T01:36:10;97130.13;;;2.05;72.50
19208;BME280;9737;59.466;18.036;2023-02-10T01:38:38;97101.69;;;2.00;72.81
19208;BME280;9737;59.466;18.036;2023-02-10T01:41:06;97080.44;;;1.94;72.94
19208;BME280;9737;59.466;18.036;2023-02-10T01:43:55;97068.59;;;1.90;72.98
19208;BME280;9737;59.466;18.036;2023-02-10T01:46:24;97052.34;;;1.86;72.67
19208;BME280;9737;59.466;18.036;2023-02-10T01:48:53;97023.41;;;1.78;72.68
19208;BME280;9737;59.466;18.036;2023-02-10T01:51:27;97015.81;;;1.75;72.91
19208;BME280;9737;59.466;18.036;2023-02-10T01:53:57;96986.72;;;1.68;72.89
19208;BME280;9737;59.466;18.036;2023-02-10T01:56:26;96974.03;;;1.64;72.88
19208;BME280;9737;59.466;18.036;2023-02-10T01:58:55;96917.56;;;1.51;72.59
19208;BME280;9737;59.466;18.036;2023-02-10T02:01:24;96925.28;;;1.53;72.48
19208;BME280;9737;59.466;18.036;2023-02-10T02:03:53;96892.22;;;1.42;72.75
19208;BME280;9737;59.466;18.036;2023-02-10T02:06:21;96896.38;;;1.45;72.78
19208;BME280;9737;59.466;18.036;2023-02-10T02:08:49;96888.63;;;1.43;72.39
19208;BME280;9737;59.466;18.036;2023-02-10T02:11:23;96857.25;;;1.34;72.22
19208;BME280;9737;59.466;18.036;2023-02-10T02:14:12;96809.63;;;1.20;72.91
19208;BME280;9737;59.466;18.036;2023-02-10T02:16:57;96784.81;;;1.15;72.51
19208;BME280;9737;59.466;18.036;2023-02-10T02:23:22;96754.56;;;1.03;72.43
19208;BME280;9737;59.466;18.036;2023-02-10T02:26:12;96760.88;;;1.10;72.47
19208;BME280;9737;59.466;18.036;2023-02-10T02:28:53;96769.41;;;1.12;72.44
19208;BME280;9737;59.466;18.036;2023-02-10T02:34:20;96759.38;;;1.07;72.54
19208;BME280;9737;59.466;18.036;2023-02-10T02:36:53;96743.81;;;1.06;72.42
19208;BME280;9737;59.466;18.036;2023-02-10T02:39:23;96706.13;;;0.99;72.55
19208;BME280;9737;59.466;18.036;2023-02-10T02:42:06;96704.47;;;0.98;72.39
19208;BME280;9737;59.466;18.036;2023-02-10T02:44:40;96680.81;;;0.89;72.09
19208;BME280;9737;59.466;18.036;2023-02-10T02:47:14;96694.28;;;0.95;72.65
19208;BME280;9737;59.466;18.036;2023-02-10T02:49:52;96684.41;;;0.88;72.24
19208;BME280;9737;59.466;18.036;2023-02-10T02:52:31;96682.47;;;0.90;72.22
19208;BME280;9737;59.466;18.036;2023-02-10T02:55:07;96647.00;;;0.78;72.23
19208;BME280;9737;59.466;18.036;2023-02-10T02:57:45;96641.75;;;0.78;72.31
19208;BME280;9737;59.466;18.036;2023-02-10T03:00:17;96614.53;;;0.71;72.13
19208;BME280;9737;59.466;18.036;2023-02-10T03:02:46;96622.09;;;0.74;72.00
19208;BME280;9737;59.466;18.036;2023-02-10T03:05:19;96628.81;;;0.77;72.30
19208;BME280;9737;59.466;18.036;2023-02-10T03:07:47;96632.25;;;0.77;71.92
19208;BME280;9737;59.466;18.036;2023-02-10T03:10:16;96630.63;;;0.76;72.19
19208;BME280;9737;59.466;18.036;2023-02-10T03:12:43;96621.13;;;0.75;71.72
19208;BME280;9737;59.466;18.036;2023-02-10T03:15:11;96614.25;;;0.74;72.19
19208;BME280;9737;59.466;18.036;2023-02-10T03:17:39;96617.84;;;0.73;72.28
19208;BME280;9737;59.466;18.036;2023-02-10T03:20:09;96612.59;;;0.73;72.35
19208;BME280;9737;59.466;18.036;2023-02-10T03:22:38;96607.66;;;0.70;72.09
19208;BME280;9737;59.466;18.036;2023-02-10T03:25:08;96582.91;;;0.65;71.91
19208;BME280;9737;59.466;18.036;2023-02-10T03:27:36;96567.53;;;0.61;72.11
19208;BME280;9737;59.466;18.036;2023-02-10T03:30:05;96566.69;;;0.61;71.95
19208;BME280;9737;59.466;18.036;2023-02-10T03:32:32;96567.66;;;0.60;72.15
19208;BME280;9737;59.466;18.036;2023-02-10T03:35:00;96547.97;;;0.56;71.71
19208;BME280;9737;59.466;18.036;2023-02-10T03:37:28;96547.84;;;0.57;71.93
19208;BME280;9737;59.466;18.036;2023-02-10T03:39:58;96547.97;;;0.56;72.20
19208;BME280;9737;59.466;18.036;2023-02-10T03:42:25;96541.09;;;0.55;71.83
19208;BME280;9737;59.466;18.036;2023-02-10T03:44:53;96561.47;;;0.61;71.74
19208;BME280;9737;59.466;18.036;2023-02-10T03:47:22;96560.09;;;0.57;71.75
19208;BME280;9737;59.466;18.036;2023-02-10T03:49:50;96566.41;;;0.64;71.97
19208;BME280;9737;59.466;18.036;2023-02-10T03:52:18;96552.94;;;0.59;71.80
19208;BME280;9737;59.466;18.036;2023-02-10T03:54:46;96567.53;;;0.61;72.01
19208;BME280;9737;59.466;18.036;2023-02-10T03:57:15;96570.97;;;0.62;71.94
19208;BME280;9737;59.466;18.036;2023-02-10T03:59:45;96550.34;;;0.59;71.92
19208;BME280;9737;59.466;18.036;2023-02-10T04:02:13;96550.34;;;0.59;71.52
19208;BME280;9737;59.466;18.036;2023-02-10T04:04:41;96587.84;;;0.68;71.79
19208;BME280;9737;59.466;18.036;2023-02-10T04:07:09;96599.81;;;0.70;71.61
19208;BME280;9737;59.466;18.036;2023-02-10T04:09:37;96578.50;;;0.65;71.46
19208;BME280;9737;59.466;18.036;2023-02-10T04:12:05;96573.44;;;0.64;71.86
19208;BME280;9737;59.466;18.036;2023-02-10T04:14:34;96544.41;;;0.57;71.77
19208;BME280;9737;59.466;18.036;2023-02-10T04:17:02;96557.06;;;0.61;71.95
19208;BME280;9737;59.466;18.036;2023-02-10T04:19:30;96563.25;;;0.60;71.55
19208;BME280;9737;59.466;18.036;2023-02-10T04:21:58;96563.41;;;0.59;71.91
19208;BME280;9737;59.466;18.036;2023-02-10T04:24:28;96593.91;;;0.68;71.55
19208;BME280;9737;59.466;18.036;2023-02-10T04:26:56;96546.91;;;0.58;71.57
19208;BME280;9737;59.466;18.036;2023-02-10T04:29:23;96544.41;;;0.57;71.37
19208;BME280;9737;59.466;18.036;2023-02-10T04:31:53;96524.88;;;0.51;71.53
19208;BME280;9737;59.466;18.036;2023-02-10T04:34:22;96510.31;;;0.49;71.70
19208;BME280;9737;59.466;18.036;2023-02-10T04:36:50;96542.59;;;0.57;71.14
19208;BME280;9737;59.466;18.036;2023-02-10T04:39:18;96546.06;;;0.58;71.74
19208;BME280;9737;59.466;18.036;2023-02-10T04:41:45;96506.06;;;0.48;71.22
19208;BME280;9737;59.466;18.036;2023-02-10T04:44:13;96495.22;;;0.43;71.25
19208;BME280;9737;59.466;18.036;2023-02-10T04:46:42;96498.50;;;0.45;71.19
19208;BME280;9737;59.466;18.036;2023-02-10T04:49:11;96512.78;;;0.50;71.53
19208;BME280;9737;59.466;18.036;2023-02-10T04:51:39;96522.13;;;0.53;71.41
19208;BME280;9737;59.466;18.036;2023-02-10T04:54:06;96535.88;;;0.55;71.48
19208;BME280;9737;59.466;18.036;2023-02-10T04:56:34;96564.91;;;0.61;71.04
19208;BME280;9737;59.466;18.036;2023-02-10T04:59:02;96537.53;;;0.56;71.24
19208;BME280;9737;59.466;18.036;2023-02-10T05:01:30;96516.22;;;0.51;71.34
19208;BME280;9737;59.466;18.036;2023-02-10T05:03:58;96529.00;;;0.54;71.32
19208;BME280;9737;59.466;18.036;2023-02-10T05:06:28;96528.03;;;0.55;71.40
19208;BME280;9737;59.466;18.036;2023-02-10T05:08:56;96522.94;;;0.53;71.25
19208;BME280;9737;59.466;18.036;2023-02-10T05:11:24;96546.06;;;0.58;70.93
19208;BME280;9737;59.466;18.036;2023-02-10T05:13:52;96542.50;;;0.59;71.41
19208;BME280;9737;59.466;18.036;2023-02-10T05:16:19;96556.25;;;0.61;71.09
19208;BME280;9737;59.466;18.036;2023-02-10T05:18:47;96545.78;;;0.61;71.02
19208;BME280;9737;59.466;18.036;2023-02-10T05:21:15;96537.53;;;0.56;70.86
19208;BME280;9737;59.466;18.036;2023-02-10T05:23:44;96526.53;;;0.52;71.31
19208;BME280;9737;59.466;18.036;2023-02-10T05:26:12;96494.94;;;0.46;71.13
19208;BME280;9737;59.466;18.036;2023-02-10T05:28:40;96454.28;;;0.34;71.37
19208;BME280;9737;59.466;18.036;2023-02-10T05:31:08;96416.75;;;0.25;70.93
19208;BME280;9737;59.466;18.036;2023-02-10T05:33:36;96409.38;;;0.20;71.23
19208;BME280;9737;59.466;18.036;2023-02-10T05:36:04;96406.59;;;0.22;71.13
19208;BME280;9737;59.466;18.036;2023-02-10T05:38:32;96396.31;;;0.20;71.11
19208;BME280;9737;59.466;18.036;2023-02-10T05:41:02;96363.38;;;0.10;71.15
19208;BME280;9737;59.466;18.036;2023-02-10T05:43:30;96366.97;;;0.09;70.81
19208;BME280;9737;59.466;18.036;2023-02-10T05:46:00;96347.19;;;0.06;70.61
19208;BME280;9737;59.466;18.036;2023-02-10T05:48:27;96316.44;;;0.00;70.78
19208;BME280;9737;59.466;18.036;2023-02-10T05:50:55;96332.63;;;0.04;70.84
19208;BME280;9737;59.466;18.036;2023-02-10T05:53:23;96330.31;;;0.01;70.64
19208;BME280;9737;59.466;18.036;2023-02-10T05:55:51;96344.56;;;0.06;70.56
19208;BME280;9737;59.466;18.036;2023-02-10T05:58:21;96328.78;;;-0.02;71.03
19208;BME280;9737;59.466;18.036;2023-02-10T06:00:49;96288.56;;;-0.09;71.13
19208;BME280;9737;59.466;18.036;2023-02-10T06:03:17;96291.47;;;-0.12;70.54
19208;BME280;9737;59.466;18.036;2023-02-10T06:05:44;96283.34;;;-0.09;70.83
19208;BME280;9737;59.466;18.036;2023-02-10T06:08:13;96279.38;;;-0.13;70.90
19208;BME280;9737;59.466;18.036;2023-02-10T06:10:41;96293.63;;;-0.08;70.72
19208;BME280;9737;59.466;18.036;2023-02-10T06:13:09;96291.16;;;-0.09;70.63
19208;BME280;9737;59.466;18.036;2023-02-10T06:15:38;96267.44;;;-0.16;70.85
19208;BME280;9737;59.466;18.036;2023-02-10T06:18:06;96244.38;;;-0.20;70.47
19208;BME280;9737;59.466;18.036;2023-02-10T06:20:34;96258.78;;;-0.16;70.99
19208;BME280;9737;59.466;18.036;2023-02-10T06:23:02;96242.91;;;-0.23;70.73
19208;BME280;9737;59.466;18.036;2023-02-10T06:25:30;96274.16;;;-0.13;70.58
19208;BME280;9737;59.466;18.036;2023-02-10T06:28:00;96266.31;;;-0.13;70.96
19208;BME280;9737;59.466;18.036;2023-02-10T06:30:28;96234.91;;;-0.21;70.58
19208;BME280;9737;59.466;18.036;2023-02-10T06:32:57;96258.78;;;-0.16;70.44
19208;BME280;9737;59.466;18.036;2023-02-10T06:35:25;96263.84;;;-0.15;70.65
19208;BME280;9737;59.466;18.036;2023-02-10T06:37:53;96245.88;;;-0.18;70.36
19208;BME280;9737;59.466;18.036;2023-02-10T06:40:21;96236.56;;;-0.20;70.13
19208;BME280;9737;59.466;18.036;2023-02-10T06:42:49;96261.09;;;-0.13;70.46
19208;BME280;9737;59.466;18.036;2023-02-10T06:45:17;96261.25;;;-0.15;70.43
19208;BME280;9737;59.466;18.036;2023-02-10T06:47:45;96260.44;;;-0.15;70.57
19208;BME280;9737;59.466;18.036;2023-02-10T06:50:14;96260.44;;;-0.15;70.67
19208;BME280;9737;59.466;18.036;2023-02-10T06:52:45;96255.50;;;-0.18;70.33
19208;BME280;9737;59.466;18.036;2023-02-10T06:55:13;96252.75;;;-0.17;69.96
19208;BME280;9737;59.466;18.036;2023-02-10T06:57:41;96248.63;;;-0.19;70.41
19208;BME280;9737;59.466;18.036;2023-02-10T07:00:11;96258.78;;;-0.16;70.26
19208;BME280;9737;59.466;18.036;2023-02-10T07:02:40;96221.19;;;-0.23;70.23
19208;BME280;9737;59.466;18.036;2023-02-10T07:05:10;96243.41;;;-0.19;69.92
19208;BME280;9737;59.466;18.036;2023-02-10T07:07:39;96258.78;;;-0.16;70.28
19208;BME280;9737;59.466;18.036;2023-02-10T07:10:08;96260.13;;;-0.12;70.55
19208;BME280;9737;59.466;18.036;2023-02-10T07:12:36;96252.75;;;-0.17;70.37
19208;BME280;9737;59.466;18.036;2023-02-10T07:15:05;96250.94;;;-0.16;70.21
19208;BME280;9737;59.466;18.036;2023-02-10T07:17:33;96255.19;;;-0.15;70.48
19208;BME280;9737;59.466;18.036;2023-02-10T07:20:03;96244.22;;;-0.19;70.01
19208;BME280;9737;59.466;18.036;2023-02-10T07:22:31;96268.94;;;-0.13;70.01
19208;BME280;9737;59.466;18.036;2023-02-10T07:25:01;96235.88;;;-0.22;70.18
19208;BME280;9737;59.466;18.036;2023-02-10T07:27:29;96213.66;;;-0.26;70.42
19208;BME280;9737;59.466;18.036;2023-02-10T07:29:57;96221.19;;;-0.23;70.17
19208;BME280;9737;59.466;18.036;2023-02-10T07:32:25;96228.03;;;-0.22;69.69
19208;BME280;9737;59.466;18.036;2023-02-10T07:34:53;96251.91;;;-0.17;70.02
19208;BME280;9737;59.466;18.036;2023-02-10T07:37:20;96261.78;;;-0.11;70.03
19208;BME280;9737;59.466;18.036;2023-02-10T07:39:48;96267.00;;;-0.11;70.20
19208;BME280;9737;59.466;18.036;2023-02-10T07:42:18;96273.03;;;-0.11;69.69
19208;BME280;9737;59.466;18.036;2023-02-10T07:44:46;96283.19;;;-0.08;69.97
19208;BME280;9737;59.466;18.036;2023-02-10T07:47:13;96315.44;;;0.01;69.81
19208;BME280;9737;59.466;18.036;2023-02-10T07:49:41;96318.75;;;0.03;70.17
19208;BME280;9737;59.466;18.036;2023-02-10T07:52:09;96339.34;;;0.06;69.80
19208;BME280;9737;59.466;18.036;2023-02-10T07:54:37;96350.16;;;0.11;70.09
19208;BME280;9737;59.466;18.036;2023-02-10T07:57:05;96386.53;;;0.22;70.20
19208;BME280;9737;59.466;18.036;2023-02-10T07:59:34;96409.75;;;0.25;70.22
19208;BME280;9737;59.466;18.036;2023-02-10T08:02:02;96415.53;;;0.29;70.14
19208;BME280;9737;59.466;18.036;2023-02-10T08:04:32;96401.91;;;0.25;70.13
19208;BME280;9737;59.466;18.036;2023-02-10T08:06:59;96426.66;;;0.31;69.82
19208;BME280;9737;59.466;18.036;2023-02-10T08:09:27;96474.31;;;0.43;69.64
19208;BME280;9737;59.466;18.036;2023-02-10T08:11:55;96510.84;;;0.52;69.91
19208;BME280;9737;59.466;18.036;2023-02-10T08:14:23;96523.47;;;0.57;70.03
19208;BME280;9737;59.466;18.036;2023-02-10T08:16:53;96530.25;;;0.59;70.20
19208;BME280;9737;59.466;18.036;2023-02-10T08:19:21;96564.19;;;0.69;70.05
19208;BME280;9737;59.466;18.036;2023-02-10T08:21:49;96602.66;;;0.77;70.08
19208;BME280;9737;59.466;18.036;2023-02-10T08:24:17;96613.66;;;0.80;70.15
19208;BME280;9737;59.466;18.036;2023-02-10T08:26:44;96613.66;;;0.80;69.90
19208;BME280;9737;59.466;18.036;2023-02-10T08:29:12;96608.44;;;0.80;70.20
19208;BME280;9737;59.466;18.036;2023-02-10T08:31:40;96627.13;;;0.85;70.10
19208;BME280;9737;59.466;18.036;2023-02-10T08:34:15;96664.56;;;0.96;69.73
19208;BME280;9737;59.466;18.036;2023-02-10T08:36:43;96679.00;;;1.00;69.78
19208;BME280;9737;59.466;18.036;2023-02-10T08:39:12;96703.06;;;1.03;69.72
19208;BME280;9737;59.466;18.036;2023-02-10T08:41:41;96733.59;;;1.12;69.76
19208;BME280;9737;59.466;18.036;2023-02-10T08:44:11;96784.81;;;1.24;70.00
19208;BME280;9737;59.466;18.036;2023-02-10T08:46:40;96801.06;;;1.28;69.91
19208;BME280;9737;59.466;18.036;2023-02-10T08:49:08;96823.88;;;1.36;70.00
19208;BME280;9737;59.466;18.036;2023-02-10T08:51:37;96855.31;;;1.45;69.71
19208;BME280;9737;59.466;18.036;2023-02-10T08:54:06;96891.94;;;1.55;69.78
19208;BME280;9737;59.466;18.036;2023-02-10T08:56:34;96950.72;;;1.70;69.84
19208;BME280;9737;59.466;18.036;2023-02-10T08:59:01;97042.66;;;1.96;70.01
19208;BME280;9737;59.466;18.036;2023-02-10T09:01:29;97156.16;;;2.26;69.93
19208;BME280;9737;59.466;18.036;2023-02-10T09:03:57;97336.28;;;2.73;69.74
19208;BME280;9737;59.466;18.036;2023-02-10T09:06:28;97502.06;;;3.17;69.55
19208;BME280;9737;59.466;18.036;2023-02-10T09:08:58;97657.81;;;3.58;70.19
19208;BME280;9737;59.466;18.036;2023-02-10T09:11:26;97939.88;;;4.29;69.53
19208;BME280;9737;59.466;18.036;2023-02-10T09:13:55;98223.16;;;5.02;70.57
19208;BME280;9737;59.466;18.036;2023-02-10T09:16:24;98541.22;;;5.85;70.54
19208;BME280;9737;59.466;18.036;2023-02-10T09:18:52;98985.25;;;6.97;70.38
19208;BME280;9737;59.466;18.036;2023-02-10T09:21:20;99094.28;;;7.22;70.37
19208;BME280;9737;59.466;18.036;2023-02-10T09:23:48;99476.22;;;8.21;70.42
19208;BME280;9737;59.466;18.036;2023-02-10T09:26:18;99633.06;;;8.60;70.71
19208;BME280;9737;59.466;18.036;2023-02-10T09:28:45;99728.53;;;8.82;70.86
19208;BME280;9737;59.466;18.036;2023-02-10T09:31:15;99709.63;;;8.76;70.69
19208;BME280;9737;59.466;18.036;2023-02-10T09:33:43;99552.72;;;8.37;70.43
19208;BME280;9737;59.466;18.036;2023-02-10T09:36:13;99423.50;;;8.07;70.09
19208;BME280;9737;59.466;18.036;2023-02-10T09:38:41;99772.91;;;8.91;70.67
19208;BME280;9737;59.466;18.036;2023-02-10T09:41:38;99755.53;;;8.87;70.67
19208;BME280;9737;59.466;18.036;2023-02-10T09:44:12;99757.22;;;8.88;70.41
19208;BME280;9737;59.466;18.036;2023-02-10T09:47:03;99943.03;;;9.33;70.12
19208;BME280;9737;59.466;18.036;2023-02-10T09:49:47;100186.31;;;9.93;70.68
19208;BME280;9737;59.466;18.036;2023-02-10T09:52:29;100220.03;;;10.04;70.56
19208;BME280;9737;59.466;18.036;2023-02-10T09:54:59;99914.19;;;9.28;70.61
19208;BME280;9737;59.466;18.036;2023-02-10T09:57:36;99567.56;;;8.40;70.67
19208;BME280;9737;59.466;18.036;2023-02-10T10:00:16;99832.75;;;9.07;70.26
19208;BME280;9737;59.466;18.036;2023-02-10T10:02:49;100170.59;;;9.90;70.23
19208;BME280;9737;59.466;18.036;2023-02-10T10:05:25;100496.06;;;10.70;70.64
19208;BME280;9737;59.466;18.036;2023-02-10T10:07:58;100840.38;;;11.55;70.72
19208;BME280;9737;59.466;18.036;2023-02-10T10:10:32;100681.66;;;11.16;70.57
19208;BME280;9737;59.466;18.036;2023-02-10T10:13:04;100527.53;;;10.76;70.53
19208;BME280;9737;59.466;18.036;2023-02-10T10:15:39;100722.63;;;11.26;70.55
19208;BME280;9737;59.466;18.036;2023-02-10T10:18:16;100800.34;;;11.44;70.51
19208;BME280;9737;59.466;18.036;2023-02-10T10:20:51;100798.53;;;11.44;70.44
19208;BME280;9737;59.466;18.036;2023-02-10T10:23:33;101008.16;;;11.95;70.40
19208;BME280;9737;59.466;18.036;2023-02-10T10:26:12;101076.41;;;12.10;70.58
19208;BME280;9737;59.466;18.036;2023-02-10T10:29:06;101432.34;;;12.98;70.54
19208;BME280;9737;59.466;18.036;2023-02-10T10:31:44;101537.56;;;13.22;70.26
19208;BME280;9737;59.466;18.036;2023-02-10T10:34:16;101591.91;;;13.36;70.68
19208;BME280;9737;59.466;18.036;2023-02-10T10:36:47;101525.38;;;13.18;70.29
19208;BME280;9737;59.466;18.036;2023-02-10T10:39:23;101341.34;;;12.76;70.24
19208;BME280;9737;59.466;18.036;2023-02-10T10:41:57;101743.50;;;13.73;70.26
19208;BME280;9737;59.466;18.036;2023-02-10T10:44:30;101775.09;;;13.81;70.19
19208;BME280;9737;59.466;18.036;2023-02-10T10:47:03;101992.88;;;14.32;70.43
19208;BME280;9737;59.466;18.036;2023-02-10T10:49:35;102050.03;;;14.45;70.30
19208;BME280;9737;59.466;18.036;2023-02-10T10:52:19;102115.03;;;14.62;69.95
19208;BME280;9737;59.466;18.036;2023-02-10T10:54:51;101935.78;;;14.19;70.04
19208;BME280;9737;59.466;18.036;2023-02-10T10:57:19;101768.97;;;13.79;70.13
19208;BME280;9737;59.466;18.036;2023-02-10T10:59:52;102089.53;;;14.56;69.92
19208;BME280;9737;59.466;18.036;2023-02-10T11:02:23;102220.81;;;14.83;69.98
19208;BME280;9737;59.466;18.036;2023-02-10T11:05:01;101747.16;;;13.72;69.72
19208;BME280;9737;59.466;18.036;2023-02-10T11:07:32;101887.44;;;14.08;69.99
19208;BME280;9737;59.466;18.036;2023-02-10T11:10:01;102113.31;;;14.61;69.67
19208;BME280;9737;59.466;18.036;2023-02-10T11:12:33;102558.81;;;15.65;69.73
19208;BME280;9737;59.466;18.036;2023-02-10T11:18:17;102253.13;;;14.94;69.44
19208;BME280;9737;59.466;18.036;2023-02-10T11:20:53;102006.91;;;14.36;69.59
19208;BME280;9737;59.466;18.036;2023-02-10T11:23:22;102049.13;;;14.46;69.39
19208;BME280;9737;59.466;18.036;2023-02-10T11:25:56;101900.41;;;14.14;69.48
19208;BME280;9737;59.466;18.036;2023-02-10T11:28:26;101983.13;;;14.31;69.09
19208;BME280;9737;59.466;18.036;2023-02-10T11:30:58;101916.28;;;14.17;69.39
19208;BME280;9737;59.466;18.036;2023-02-10T11:33:30;102041.94;;;14.47;68.77
19208;BME280;9737;59.466;18.036;2023-02-10T11:36:03;102238.78;;;14.95;69.23
19208;BME280;9737;59.466;18.036;2023-02-10T11:38:33;102084.19;;;14.56;68.78
19208;BME280;9737;59.466;18.036;2023-02-10T11:41:03;101827.59;;;13.96;68.69
19208;BME280;9737;59.466;18.036;2023-02-10T11:43:37;101648.69;;;13.52;68.96
19208;BME280;9737;59.466;18.036;2023-02-10T11:46:17;101685.41;;;13.62;68.71
19208;BME280;9737;59.466;18.036;2023-02-10T11:48:52;101259.72;;;12.59;68.58
19208;BME280;9737;59.466;18.036;2023-02-10T11:51:20;100642.19;;;11.10;68.16
19208;BME280;9737;59.466;18.036;2023-02-10T11:53:48;100311.38;;;10.27;68.08
19208;BME280;9737;59.466;18.036;2023-02-10T11:56:21;99777.13;;;8.94;67.97
19208;BME280;9737;59.466;18.036;2023-02-10T11:59:15;99602.97;;;8.50;67.87
19208;BME280;9737;59.466;18.036;2023-02-10T12:01:53;99671.38;;;8.67;67.64
19208;BME280;9737;59.466;18.036;2023-02-10T12:04:55;99712.75;;;8.81;67.74
19208;BME280;9737;59.466;18.036;2023-02-10T12:07:40;99474.53;;;8.20;67.18
19208;BME280;9737;59.466;18.036;2023-02-10T12:10:15;99271.31;;;7.68;67.46
19208;BME280;9737;59.466;18.036;2023-02-10T12:12:51;99128.66;;;7.33;67.05
19208;BME280;9737;59.466;18.036;2023-02-10T12:15:28;98740.50;;;6.32;67.45
19208;BME280;9737;59.466;18.036;2023-02-10T12:18:14;98563.75;;;5.89;67.10
19208;BME280;9737;59.466;18.036;2023-02-10T12:20:56;98540.66;;;5.81;67.28
19208;BME280;9737;59.466;18.036;2023-02-10T12:23:50;98589.38;;;5.98;66.81
19208;BME280;9737;59.466;18.036;2023-02-10T12:26:26;98589.25;;;6.00;66.76
19208;BME280;9737;59.466;18.036;2023-02-10T12:29:08;98609.75;;;6.07;66.95
19208;BME280;9737;59.466;18.036;2023-02-10T12:31:52;98557.41;;;5.92;66.39
19208;BME280;9737;59.466;18.036;2023-02-10T12:34:33;98559.09;;;5.93;66.38
19208;BME280;9737;59.466;18.036;2023-02-10T12:37:13;98505.66;;;5.79;66.86
19208;BME280;9737;59.466;18.036;2023-02-10T12:39:51;98544.44;;;5.88;66.38
19208;BME280;9737;59.466;18.036;2023-02-10T12:42:35;98445.44;;;5.64;65.96
19208;BME280;9737;59.466;18.036;2023-02-10T12:45:15;98422.63;;;5.53;66.09
19208;BME280;9737;59.466;18.036;2023-02-10T12:47:49;98304.28;;;5.29;66.19
19208;BME280;9737;59.466;18.036;2023-02-10T12:50:37;98243.44;;;5.11;65.72
19208;BME280;9737;59.466;18.036;2023-02-10T12:53:12;97965.41;;;4.38;65.86
19208;BME280;9737;59.466;18.036;2023-02-10T12:55:48;97887.09;;;4.21;65.67
19208;BME280;9737;59.466;18.036;2023-02-10T12:58:21;97790.41;;;3.94;65.69
19208;BME280;9737;59.466;18.036;2023-02-10T13:01:04;97672.91;;;3.65;65.60
19208;BME280;9737;59.466;18.036;2023-02-10T13:03:37;97595.81;;;3.46;65.71
19208;BME280;9737;59.466;18.036;2023-02-10T13:06:17;97598.34;;;3.47;65.24
19208;BME280;9737;59.466;18.036;2023-02-10T13:08:49;97592.50;;;3.43;65.56
19208;BME280;9737;59.466;18.036;2023-02-10T13:11:23;97564.03;;;3.39;65.40
19208;BME280;9737;59.466;18.036;2023-02-10T13:13:55;97552.13;;;3.35;65.05
19208;BME280;9737;59.466;18.036;2023-02-10T13:16:28;97554.63;;;3.36;65.41
19208;BME280;9737;59.466;18.036;2023-02-10T13:19:03;97521.31;;;3.27;65.18
19208;BME280;9737;59.466;18.036;2023-02-10T13:21:39;97469.88;;;3.15;65.04
19208;BME280;9737;59.466;18.036;2023-02-10T13:24:15;97470.00;;;3.14;65.32
19208;BME280;9737;59.466;18.036;2023-02-10T13:26:55;97462.94;;;3.14;64.98
19208;BME280;9737;59.466;18.036;2023-02-10T13:29:41;97492.00;;;3.22;65.06
19208;BME280;9737;59.466;18.036;2023-02-10T13:32:27;97515.91;;;3.29;64.79
19208;BME280;9737;59.466;18.036;2023-02-10T13:34:59;97517.31;;;3.23;65.10
19208;BME280;9737;59.466;18.036;2023-02-10T13:37:34;97487.72;;;3.21;64.71
19208;BME280;9737;59.466;18.036;2023-02-10T13:40:14;97516.59;;;3.31;64.80